createdAt,value
2019-01-03T00:01:50.899Z,80.27
2019-01-03T00:02:29.907Z,79.80
2019-01-03T00:03:33.907Z,79.80
2019-01-03T00:06:01.622Z,79.61
2019-01-03T00:07:01.631Z,80.18
2019-01-03T00:08:01.628Z,79.90
2019-01-03T00:09:06.608Z,80.08
2019-01-03T00:10:02.130Z,80.27
2019-01-03T00:11:02.128Z,80.65
2019-01-03T00:12:04.563Z,79.99
2019-01-03T00:13:02.635Z,79.99
2019-01-03T00:14:08.655Z,80.08
2019-01-03T00:15:02.628Z,80.27
2019-01-03T00:16:02.628Z,80.46
2019-01-03T00:17:03.128Z,79.90
2019-01-03T00:18:03.129Z,79.99
2019-01-03T00:19:04.159Z,80.27
2019-01-03T00:20:27.629Z,79.80
2019-01-03T00:21:23.704Z,80.75
2019-01-03T00:22:05.069Z,81.22
2019-01-03T00:23:03.629Z,81.13
2019-01-03T00:24:03.635Z,81.03
2019-01-03T00:25:06.785Z,81.51
2019-01-03T00:26:06.128Z,81.22
2019-01-03T00:28:36.000Z,81.03
2019-01-03T00:29:35.474Z,80.84
2019-01-03T00:32:31.638Z,81.32
2019-01-03T00:33:10.645Z,81.09
2019-01-03T00:34:10.645Z,80.99
2019-01-03T00:37:07.355Z,81.13
2019-01-03T00:37:42.368Z,81.03
2019-01-03T00:38:42.366Z,81.18
2019-01-03T00:39:42.866Z,80.99
2019-01-03T00:42:17.704Z,81.65
2019-01-03T00:43:14.217Z,81.74
2019-01-03T00:44:14.218Z,81.46
2019-01-03T00:45:35.713Z,81.74
2019-01-03T00:46:14.714Z,82.22
2019-01-03T00:47:14.712Z,82.31
2019-01-03T00:48:18.712Z,81.56
2019-01-03T00:49:15.217Z,81.46
2019-01-03T00:54:54.911Z,81.46
2019-01-03T00:55:54.917Z,82.03
2019-01-03T00:56:53.958Z,82.22
2019-01-03T00:59:29.172Z,82.41
2019-01-03T01:00:25.187Z,82.60
2019-01-03T01:01:25.178Z,82.12
2019-01-03T01:02:25.679Z,81.84
2019-01-03T01:03:25.682Z,82.79
2019-01-03T01:04:25.677Z,82.12
2019-01-03T01:08:32.231Z,82.22
2019-01-03T01:09:32.237Z,82.88
2019-01-03T01:10:36.238Z,82.69
2019-01-03T01:11:32.742Z,83.26
2019-01-03T01:12:32.737Z,83.26
2019-01-03T01:13:32.736Z,83.45
2019-01-03T01:14:33.239Z,83.26
2019-01-03T01:15:33.239Z,83.17
2019-01-03T01:16:36.632Z,83.26
2019-01-03T01:17:33.244Z,82.69
2019-01-03T01:18:33.736Z,82.88
2019-01-03T01:19:33.736Z,83.36
2019-01-03T01:20:33.737Z,83.36
2019-01-03T01:21:33.737Z,83.54
2019-01-03T01:22:37.241Z,83.26
2019-01-03T01:23:34.237Z,83.07
2019-01-03T01:24:34.237Z,83.17
2019-01-03T01:25:34.235Z,83.17
2019-01-03T01:26:55.736Z,83.36
2019-01-03T01:27:40.698Z,83.36
2019-01-03T01:28:34.773Z,82.98
2019-01-03T01:29:34.735Z,82.98
2019-01-03T01:30:41.235Z,83.36
2019-01-03T01:31:35.240Z,83.26
2019-01-03T01:32:38.734Z,83.07
2019-01-03T01:33:35.236Z,83.36
2019-01-03T01:34:37.189Z,83.17
2019-01-03T01:35:34.905Z,83.26
2019-01-03T01:36:57.702Z,83.26
2019-01-03T01:37:35.735Z,83.54
2019-01-03T01:38:39.735Z,83.26
2019-01-03T01:39:57.233Z,83.17
2019-01-03T01:40:36.234Z,83.73
2019-01-03T01:41:36.231Z,84.01
2019-01-03T01:42:36.240Z,84.11
2019-01-03T01:44:01.233Z,83.73
2019-01-03T01:44:36.733Z,84.11
2019-01-03T01:45:36.738Z,84.20
2019-01-03T01:46:36.736Z,84.20
2019-01-03T01:47:38.189Z,83.54
2019-01-03T01:48:38.175Z,84.20
2019-01-03T01:49:40.667Z,83.83
2019-01-03T01:50:37.232Z,83.73
2019-01-03T01:51:37.232Z,83.92
2019-01-03T01:52:37.732Z,83.73
2019-01-03T01:53:37.733Z,84.01
2019-01-03T01:54:39.167Z,83.92
2019-01-03T01:55:41.731Z,83.73
2019-01-03T01:56:37.731Z,83.36
2019-01-03T01:57:39.165Z,83.36
2019-01-03T01:58:39.667Z,83.83
2019-01-03T01:59:38.231Z,83.26
2019-01-03T02:00:38.231Z,83.26
2019-01-03T02:01:41.740Z,83.73
2019-01-03T02:02:59.731Z,83.73
2019-01-03T02:03:44.730Z,83.26
2019-01-03T02:04:38.730Z,83.45
2019-01-03T02:08:45.826Z,83.26
2019-01-03T02:09:45.829Z,82.88
2019-01-03T02:10:45.832Z,83.26
2019-01-03T02:13:21.548Z,83.64
2019-01-03T02:14:17.552Z,83.73
2019-01-03T02:15:38.562Z,83.54
2019-01-03T02:17:49.282Z,83.36
2019-01-03T02:18:53.278Z,83.92
2019-01-03T02:19:49.277Z,84.01
2019-01-03T02:20:49.785Z,84.01
2019-01-03T02:21:49.777Z,84.01
2019-01-03T02:22:49.777Z,84.01
2019-01-03T02:23:49.784Z,84.20
2019-01-03T02:24:54.278Z,83.92
2019-01-03T02:25:50.277Z,83.45
2019-01-03T02:28:21.755Z,83.92
2019-01-03T02:29:21.764Z,83.07
2019-01-03T02:31:57.063Z,83.92
2019-01-03T02:32:57.085Z,84.20
2019-01-03T02:33:57.070Z,84.20
2019-01-03T02:38:26.615Z,83.73
2019-01-03T02:39:04.144Z,83.73
2019-01-03T02:40:04.144Z,83.64
2019-01-03T02:41:04.145Z,83.54
2019-01-03T02:42:10.085Z,83.45
2019-01-03T02:43:25.643Z,83.73
2019-01-03T02:44:06.643Z,84.01
2019-01-03T02:45:04.647Z,83.83
2019-01-03T02:46:25.699Z,83.73
2019-01-03T02:47:29.644Z,83.83
2019-01-03T02:48:26.148Z,83.92
2019-01-03T02:49:05.145Z,83.36
2019-01-03T02:50:05.144Z,83.17
2019-01-03T02:51:05.142Z,83.45
2019-01-03T02:52:05.652Z,83.92
2019-01-03T02:53:11.651Z,83.36
2019-01-03T02:54:05.644Z,83.54
2019-01-03T02:55:05.642Z,83.54
2019-01-03T02:57:37.356Z,83.17
2019-01-03T03:00:12.519Z,82.98
2019-01-03T03:01:33.534Z,83.26
2019-01-03T03:02:33.520Z,83.54
2019-01-03T03:03:34.020Z,84.49
2019-01-03T03:04:16.526Z,84.58
2019-01-03T03:05:13.021Z,84.86
2019-01-03T03:06:13.022Z,84.68
2019-01-03T03:07:34.529Z,84.30
2019-01-03T03:08:14.499Z,84.39
2019-01-03T03:09:13.521Z,84.49
2019-01-03T03:10:38.016Z,84.20
2019-01-03T03:12:45.238Z,85.24
2019-01-03T03:13:45.245Z,84.86
2019-01-03T03:14:45.244Z,84.86
2019-01-03T03:15:49.247Z,85.34
2019-01-03T03:16:44.957Z,84.39
2019-01-03T03:17:48.680Z,84.01
2019-01-03T03:18:45.744Z,84.20
2019-01-03T03:19:45.747Z,84.01
2019-01-03T03:21:10.744Z,84.49
2019-01-03T03:23:17.614Z,84.77
2019-01-03T03:24:17.598Z,84.20
2019-01-03T03:25:17.601Z,84.39
2019-01-03T03:27:52.478Z,84.96
2019-01-03T03:29:13.494Z,84.77
2019-01-03T03:29:52.486Z,84.39
2019-01-03T03:32:28.226Z,83.54
2019-01-03T03:33:24.206Z,84.01
2019-01-03T03:34:24.206Z,83.64
2019-01-03T03:35:24.707Z,84.11
2019-01-03T03:36:24.705Z,84.30
2019-01-03T03:37:24.705Z,84.20
2019-01-03T03:38:28.239Z,84.11
2019-01-03T03:39:26.639Z,83.45
2019-01-03T03:40:25.204Z,83.64
2019-01-03T03:41:46.205Z,83.64
2019-01-03T03:42:25.212Z,83.07
2019-01-03T03:43:29.205Z,83.07
2019-01-03T03:45:57.541Z,83.45
2019-01-03T03:46:57.556Z,83.26
2019-01-03T03:47:57.557Z,83.45
2019-01-03T03:53:35.220Z,84.39
2019-01-03T03:54:59.727Z,84.39
2019-01-03T03:55:35.228Z,84.30
2019-01-03T03:56:56.727Z,84.11
2019-01-03T03:57:35.727Z,84.68
2019-01-03T03:58:35.731Z,84.39
2019-01-03T03:59:39.728Z,84.39
2019-01-03T04:00:36.226Z,84.11
2019-01-03T04:01:36.222Z,84.01
2019-01-03T04:02:36.231Z,84.01
2019-01-03T04:03:57.227Z,83.73
2019-01-03T04:04:36.726Z,83.64
2019-01-03T04:05:39.725Z,82.98
2019-01-03T04:06:36.725Z,83.45
2019-01-03T04:07:36.727Z,83.36
2019-01-03T04:12:04.665Z,83.26
2019-01-03T04:12:40.176Z,83.36
2019-01-03T04:14:02.107Z,83.26
2019-01-03T04:16:32.829Z,83.45
2019-01-03T04:17:15.335Z,83.83
2019-01-03T04:18:33.341Z,83.83
2019-01-03T04:19:16.821Z,83.64
2019-01-03T04:20:12.329Z,84.20
2019-01-03T04:21:22.270Z,84.39
2019-01-03T04:22:16.334Z,84.77
2019-01-03T04:23:33.841Z,84.58
2019-01-03T04:24:33.834Z,84.30
2019-01-03T04:25:33.835Z,84.96
2019-01-03T04:27:48.063Z,84.92
2019-01-03T04:28:44.563Z,84.86
2019-01-03T04:29:44.563Z,84.68
2019-01-03T04:30:45.059Z,85.62
2019-01-03T04:32:06.057Z,85.53
2019-01-03T04:32:45.067Z,85.53
2019-01-03T04:33:49.064Z,85.53
2019-01-03T04:34:45.610Z,85.34
2019-01-03T04:35:45.564Z,85.91
2019-01-03T04:36:45.569Z,85.05
2019-01-03T04:37:45.562Z,84.49
2019-01-03T04:38:46.064Z,84.39
2019-01-03T04:40:10.062Z,84.58
2019-01-03T04:40:46.071Z,84.01
2019-01-03T04:41:46.061Z,84.01
2019-01-03T04:44:38.775Z,84.58
2019-01-03T04:45:42.783Z,84.30
2019-01-03T04:46:39.296Z,84.96
2019-01-03T04:48:49.642Z,84.35
2019-01-03T04:51:24.603Z,85.20
2019-01-03T04:52:21.113Z,84.96
2019-01-03T04:53:21.616Z,84.96
2019-01-03T04:54:21.614Z,85.15
2019-01-03T04:55:42.617Z,85.15
2019-01-03T04:57:57.281Z,85.01
2019-01-03T04:58:57.286Z,85.30
2019-01-03T04:59:57.277Z,84.54
2019-01-03T05:00:58.713Z,84.49
2019-01-03T05:02:01.278Z,84.49
2019-01-03T05:03:18.779Z,84.96
2019-01-03T05:03:57.789Z,85.15
2019-01-03T05:06:29.494Z,84.96
2019-01-03T05:07:32.995Z,85.30
2019-01-03T05:08:29.495Z,84.39
2019-01-03T05:11:01.705Z,85.34
2019-01-03T05:12:22.722Z,84.58
2019-01-03T05:13:05.717Z,84.35
2019-01-03T05:14:01.714Z,85.05
2019-01-03T05:16:33.429Z,85.20
2019-01-03T05:17:33.435Z,85.39
2019-01-03T05:20:29.708Z,86.05
2019-01-03T05:21:29.715Z,86.05
2019-01-03T05:22:08.721Z,85.39
2019-01-03T05:23:09.215Z,85.30
2019-01-03T05:24:13.222Z,85.30
2019-01-03T05:25:09.214Z,85.39
2019-01-03T05:26:09.215Z,85.96
2019-01-03T05:29:01.930Z,86.15
2019-01-03T05:29:44.436Z,86.05
2019-01-03T05:30:40.933Z,86.05
2019-01-03T05:33:12.649Z,85.58
2019-01-03T05:34:15.093Z,85.39
2019-01-03T05:35:38.090Z,85.11
2019-01-03T05:36:13.165Z,84.82
2019-01-03T05:37:13.156Z,85.30
2019-01-03T05:38:13.153Z,84.73
2019-01-03T05:39:13.152Z,84.82
2019-01-03T05:40:17.154Z,84.64
2019-01-03T05:41:13.652Z,85.68
2019-01-03T05:42:34.656Z,85.20
2019-01-03T05:43:13.653Z,85.30
2019-01-03T05:44:14.153Z,85.58
2019-01-03T05:45:14.152Z,85.77
2019-01-03T05:46:39.164Z,85.58
2019-01-03T05:47:14.152Z,85.49
2019-01-03T05:49:45.877Z,85.30
2019-01-03T05:50:45.870Z,85.11
2019-01-03T05:53:21.991Z,84.92
2019-01-03T05:54:21.309Z,84.92
2019-01-03T05:55:21.308Z,85.01
2019-01-03T05:56:42.808Z,85.01
2019-01-03T05:57:25.318Z,84.73
2019-01-03T05:58:21.812Z,85.68
2019-01-03T05:59:21.808Z,85.77
2019-01-03T06:00:22.316Z,85.77
2019-01-03T06:01:22.315Z,85.49
2019-01-03T06:02:26.742Z,85.39
2019-01-03T06:03:22.306Z,85.39
2019-01-03T06:04:30.270Z,86.05
2019-01-03T06:05:23.782Z,85.49
2019-01-03T06:06:43.805Z,85.49
2019-01-03T06:10:30.623Z,85.20
2019-01-03T06:11:29.694Z,84.92
2019-01-03T06:12:33.185Z,85.20
2019-01-03T06:13:51.202Z,84.54
2019-01-03T06:14:30.189Z,84.92
2019-01-03T06:15:30.194Z,85.20
2019-01-03T06:16:32.154Z,85.01
2019-01-03T06:17:34.188Z,84.73
2019-01-03T06:18:51.686Z,85.01
2019-01-03T06:19:32.142Z,84.73
2019-01-03T06:20:30.688Z,84.73
2019-01-03T06:21:51.685Z,85.20
2019-01-03T06:22:54.685Z,85.20
2019-01-03T06:23:31.187Z,85.30
2019-01-03T06:24:31.185Z,84.82
2019-01-03T06:25:31.188Z,85.30
2019-01-03T06:28:08.083Z,84.16
2019-01-03T06:29:02.913Z,84.64
2019-01-03T06:30:02.907Z,84.35
2019-01-03T06:31:24.406Z,85.01
2019-01-03T06:32:03.406Z,84.73
2019-01-03T06:33:03.409Z,84.92
2019-01-03T06:34:06.906Z,85.01
2019-01-03T06:35:05.340Z,84.45
2019-01-03T06:37:35.242Z,84.82
2019-01-03T06:38:35.250Z,85.11
2019-01-03T06:39:39.749Z,85.30
2019-01-03T06:40:37.203Z,84.82
2019-01-03T06:41:35.748Z,85.20
2019-01-03T06:42:35.750Z,85.11
2019-01-03T06:43:35.755Z,85.58
2019-01-03T06:46:11.158Z,85.49
2019-01-03T06:47:32.163Z,86.05
2019-01-03T06:48:11.160Z,85.77
2019-01-03T06:53:50.136Z,85.68
2019-01-03T06:54:50.144Z,85.91
2019-01-03T06:55:54.152Z,85.72
2019-01-03T06:57:13.078Z,86.43
2019-01-03T06:59:21.999Z,86.99
2019-01-03T07:00:21.336Z,86.15
2019-01-03T07:01:24.502Z,85.96
2019-01-03T07:02:22.000Z,86.05
2019-01-03T07:04:53.724Z,85.86
2019-01-03T07:05:53.731Z,86.05
2019-01-03T07:08:29.159Z,85.20
2019-01-03T07:09:29.188Z,84.82
2019-01-03T07:12:04.277Z,85.20
2019-01-03T07:13:02.718Z,84.92
2019-01-03T07:14:00.783Z,84.82
2019-01-03T07:15:22.283Z,84.92
2019-01-03T07:16:02.753Z,84.97
2019-01-03T07:17:25.784Z,85.11
2019-01-03T07:19:34.215Z,86.24
2019-01-03T07:20:53.763Z,85.86
2019-01-03T07:23:07.854Z,85.11
2019-01-03T07:24:04.368Z,85.77
2019-01-03T07:25:04.362Z,84.82
2019-01-03T07:29:10.555Z,86.05
2019-01-03T07:30:07.538Z,85.96
2019-01-03T07:31:07.542Z,86.05
2019-01-03T07:32:22.090Z,85.96
2019-01-03T07:33:08.037Z,86.24
2019-01-03T07:34:35.038Z,86.15
2019-01-03T07:35:08.037Z,86.15
2019-01-03T07:36:08.038Z,86.33
2019-01-03T07:37:09.991Z,85.86
2019-01-03T07:38:08.537Z,86.05
2019-01-03T07:42:15.164Z,85.58
2019-01-03T07:43:15.171Z,85.58
2019-01-03T07:44:15.172Z,85.68
2019-01-03T07:45:19.174Z,84.73
2019-01-03T07:46:36.677Z,84.92
2019-01-03T07:49:08.149Z,85.68
2019-01-03T07:50:08.680Z,85.58
2019-01-03T07:50:50.655Z,85.49
2019-01-03T07:51:53.687Z,85.77
2019-01-03T07:52:50.088Z,85.49
2019-01-03T07:54:08.658Z,85.77
2019-01-03T07:54:47.658Z,86.24
2019-01-03T07:55:51.656Z,86.15
2019-01-03T07:58:19.498Z,86.43
2019-01-03T07:59:19.503Z,87.09
2019-01-03T08:00:18.965Z,87.37
2019-01-03T08:01:44.508Z,87.28
2019-01-03T08:02:19.999Z,87.85
2019-01-03T08:03:20.006Z,88.32
2019-01-03T08:04:41.010Z,88.42
2019-01-03T08:05:22.433Z,88.70
2019-01-03T08:06:50.995Z,88.98
2019-01-03T08:07:41.499Z,89.07
2019-01-03T08:11:23.392Z,89.36
2019-01-03T08:12:46.398Z,89.73
2019-01-03T08:13:44.896Z,89.36
2019-01-03T08:14:23.898Z,88.98
2019-01-03T08:15:23.231Z,88.98
2019-01-03T08:16:23.897Z,89.07
2019-01-03T08:17:27.906Z,88.70
2019-01-03T08:19:55.621Z,88.79
2019-01-03T08:20:55.628Z,88.23
2019-01-03T08:21:55.628Z,87.75
2019-01-03T08:23:22.063Z,87.75
2019-01-03T08:23:56.128Z,87.75
2019-01-03T08:24:56.127Z,87.85
2019-01-03T08:25:56.127Z,87.79
2019-01-03T08:27:17.128Z,87.42
2019-01-03T08:27:59.643Z,86.85
2019-01-03T08:28:56.627Z,86.94
2019-01-03T08:29:56.626Z,86.66
2019-01-03T08:30:56.626Z,86.47
2019-01-03T08:33:32.341Z,86.94
2019-01-03T08:34:27.675Z,86.85
2019-01-03T08:35:28.352Z,86.76
2019-01-03T08:36:28.348Z,86.10
2019-01-03T08:40:35.230Z,84.96
2019-01-03T08:41:35.237Z,84.96
2019-01-03T08:42:35.265Z,85.05
2019-01-03T08:43:35.738Z,85.43
2019-01-03T08:44:40.671Z,85.81
2019-01-03T08:45:35.736Z,86.00
2019-01-03T08:46:35.735Z,86.00
2019-01-03T08:47:36.256Z,85.62
2019-01-03T08:48:37.707Z,86.29
2019-01-03T08:49:37.678Z,86.19
2019-01-03T08:50:38.723Z,87.04
2019-01-03T08:51:36.236Z,86.38
2019-01-03T08:52:40.169Z,86.29
2019-01-03T08:53:36.735Z,85.81
2019-01-03T08:54:36.737Z,86.38
2019-01-03T08:55:54.770Z,85.91
2019-01-03T08:56:59.669Z,86.38
2019-01-03T08:57:38.677Z,86.29
2019-01-03T08:58:58.241Z,86.10
2019-01-03T09:00:00.239Z,86.29
2019-01-03T09:00:40.741Z,86.52
2019-01-03T09:01:37.735Z,86.61
2019-01-03T09:03:02.669Z,86.23
2019-01-03T09:03:37.071Z,86.14
2019-01-03T09:04:37.734Z,85.62
2019-01-03T09:05:41.734Z,85.57
2019-01-03T09:06:59.233Z,85.66
2019-01-03T09:07:38.233Z,86.14
2019-01-03T09:09:00.667Z,86.10
2019-01-03T09:09:59.232Z,86.29
2019-01-03T09:11:11.167Z,86.23
2019-01-03T09:13:10.080Z,86.19
2019-01-03T09:14:33.043Z,86.19
2019-01-03T09:15:09.506Z,86.19
2019-01-03T09:16:15.520Z,86.29
2019-01-03T09:17:31.594Z,86.42
2019-01-03T09:19:41.942Z,86.04
2019-01-03T09:20:41.955Z,85.66
2019-01-03T09:22:06.446Z,85.00
2019-01-03T09:24:13.670Z,85.19
2019-01-03T09:25:34.675Z,85.00
2019-01-03T09:26:14.610Z,85.19
2019-01-03T09:27:17.675Z,84.91
2019-01-03T09:28:14.199Z,84.53
2019-01-03T09:29:14.174Z,84.34
2019-01-03T09:30:14.177Z,85.00
2019-01-03T09:31:14.182Z,85.10
2019-01-03T09:32:39.176Z,85.00
2019-01-03T09:33:14.678Z,85.00
2019-01-03T09:34:14.675Z,84.81
2019-01-03T09:35:14.678Z,84.81
2019-01-03T09:37:49.898Z,84.81
2019-01-03T09:39:00.401Z,84.81
2019-01-03T09:40:09.357Z,84.81
2019-01-03T09:42:18.087Z,85.47
2019-01-03T09:43:21.089Z,84.91
2019-01-03T09:44:20.021Z,84.63
2019-01-03T09:45:17.664Z,84.63
2019-01-03T09:46:18.591Z,85.00
2019-01-03T09:47:18.586Z,84.91
2019-01-03T09:48:22.746Z,84.63
2019-01-03T09:49:18.583Z,84.44
2019-01-03T09:50:20.017Z,84.25
2019-01-03T09:51:19.083Z,84.10
2019-01-03T09:52:19.082Z,83.91
2019-01-03T09:53:19.090Z,83.53
2019-01-03T09:55:53.778Z,84.39
2019-01-03T09:56:53.785Z,84.48
2019-01-03T09:57:53.793Z,84.58
2019-01-03T10:00:29.513Z,83.91
2019-01-03T10:01:25.518Z,84.01
2019-01-03T10:02:47.989Z,83.82
2019-01-03T10:04:57.212Z,84.20
2019-01-03T10:06:02.653Z,84.77
2019-01-03T10:06:57.218Z,84.58
2019-01-03T10:07:58.653Z,85.14
2019-01-03T10:12:03.869Z,85.42
2019-01-03T10:14:54.265Z,86.28
2019-01-03T10:15:52.833Z,86.47
2019-01-03T10:16:31.830Z,87.60
2019-01-03T10:17:34.830Z,87.93
2019-01-03T10:20:03.013Z,88.83
2019-01-03T10:21:03.683Z,88.64
2019-01-03T10:22:03.690Z,88.93
2019-01-03T10:23:28.180Z,89.45
2019-01-03T10:24:05.113Z,90.01
2019-01-03T10:25:04.178Z,89.73
2019-01-03T10:26:18.179Z,90.16
2019-01-03T10:27:25.676Z,89.87
2019-01-03T10:28:08.179Z,89.50
2019-01-03T10:29:04.686Z,89.78
2019-01-03T10:30:06.151Z,90.06
2019-01-03T10:31:26.179Z,89.21
2019-01-03T10:32:28.178Z,88.64
2019-01-03T10:33:29.678Z,88.36
2019-01-03T10:34:05.181Z,89.02
2019-01-03T10:35:05.182Z,88.83
2019-01-03T10:37:36.913Z,88.83
2019-01-03T10:38:39.910Z,88.74
2019-01-03T10:39:38.344Z,88.64
2019-01-03T10:43:43.528Z,87.88
2019-01-03T10:44:40.040Z,88.17
2019-01-03T10:45:40.039Z,87.70
2019-01-03T10:46:39.616Z,88.36
2019-01-03T10:47:40.534Z,89.21
2019-01-03T10:48:44.539Z,89.02
2019-01-03T10:49:42.593Z,88.55
2019-01-03T10:52:33.065Z,88.83
2019-01-03T10:53:33.072Z,88.36
2019-01-03T10:57:39.981Z,88.45
2019-01-03T10:58:39.999Z,88.55
2019-01-03T10:59:22.488Z,88.64
2019-01-03T11:00:25.501Z,88.64
2019-01-03T11:01:19.487Z,88.74
2019-01-03T11:02:19.487Z,88.17
2019-01-03T11:03:19.489Z,87.98
2019-01-03T11:04:23.486Z,88.02
2019-01-03T11:05:19.199Z,87.84
2019-01-03T11:06:19.993Z,87.23
2019-01-03T11:07:19.987Z,87.32
2019-01-03T11:08:21.994Z,86.85
2019-01-03T11:11:16.144Z,87.23
2019-01-03T11:11:55.157Z,87.98
2019-01-03T11:12:55.197Z,88.55
2019-01-03T11:14:16.657Z,88.36
2019-01-03T11:15:20.293Z,88.36
2019-01-03T11:15:55.656Z,89.02
2019-01-03T11:16:55.671Z,89.12
2019-01-03T11:19:49.873Z,87.93
2019-01-03T11:20:44.900Z,87.84
2019-01-03T11:21:28.337Z,88.40
2019-01-03T11:22:48.906Z,87.74
2019-01-03T11:23:27.904Z,87.74
2019-01-03T11:24:27.903Z,87.93
2019-01-03T11:25:54.336Z,88.21
2019-01-03T11:26:31.336Z,88.21
2019-01-03T11:27:28.401Z,88.02
2019-01-03T11:29:59.868Z,88.02
2019-01-03T11:31:03.875Z,88.49
2019-01-03T11:31:59.876Z,88.59
2019-01-03T11:34:55.032Z,88.21
2019-01-03T11:37:06.572Z,88.40
2019-01-03T11:38:03.165Z,88.87
2019-01-03T11:45:12.755Z,87.36
2019-01-03T11:46:26.731Z,87.36
2019-01-03T11:47:16.234Z,87.65
2019-01-03T11:50:09.892Z,86.98
2019-01-03T11:50:44.477Z,86.98
2019-01-03T11:52:05.457Z,86.70
2019-01-03T11:54:34.749Z,86.41
2019-01-03T11:57:13.097Z,86.36
2019-01-03T12:00:02.487Z,86.46
2019-01-03T12:01:58.958Z,86.04
2019-01-03T12:03:23.463Z,85.75
2019-01-03T12:03:58.964Z,85.66
2019-01-03T12:05:19.530Z,86.22
2019-01-03T12:06:26.465Z,85.75
2019-01-03T12:06:59.461Z,86.13
2019-01-03T12:08:04.897Z,86.13
2019-01-03T12:08:59.464Z,86.32
2019-01-03T12:11:30.526Z,86.36
2019-01-03T12:12:31.205Z,86.27
2019-01-03T12:13:56.191Z,86.65
2019-01-03T12:19:36.794Z,86.55
2019-01-03T12:20:05.768Z,86.36
2019-01-03T12:21:05.771Z,86.27
2019-01-03T12:23:37.503Z,86.08
2019-01-03T12:24:41.496Z,86.08
2019-01-03T12:27:32.658Z,85.04
2019-01-03T12:28:08.639Z,85.04
2019-01-03T12:29:30.223Z,85.51
2019-01-03T12:30:33.723Z,85.23
2019-01-03T12:31:09.732Z,85.04
2019-01-03T12:32:30.728Z,85.23
2019-01-03T12:33:09.722Z,85.04
2019-01-03T12:35:45.442Z,85.51
2019-01-03T12:36:41.447Z,85.99
2019-01-03T12:37:41.451Z,86.18
2019-01-03T12:43:19.931Z,85.93
2019-01-03T12:44:19.940Z,85.61
2019-01-03T12:45:19.938Z,85.65
2019-01-03T12:48:16.656Z,85.55
2019-01-03T12:49:12.664Z,86.08
2019-01-03T12:50:12.681Z,85.80
2019-01-03T12:55:32.042Z,86.27
2019-01-03T12:58:01.553Z,85.74
2019-01-03T13:00:36.281Z,86.12
2019-01-03T13:01:36.283Z,86.12
2019-01-03T13:02:57.782Z,85.74
2019-01-03T13:03:36.798Z,86.31
2019-01-03T13:04:40.283Z,85.74
2019-01-03T13:05:36.782Z,85.84
2019-01-03T13:06:37.283Z,85.08
2019-01-03T13:07:37.283Z,85.46
2019-01-03T13:08:37.283Z,85.17
2019-01-03T13:09:37.831Z,84.99
2019-01-03T13:11:02.295Z,84.51
2019-01-03T13:13:30.137Z,84.42
2019-01-03T13:14:36.156Z,84.42
2019-01-03T13:17:05.276Z,82.85
2019-01-03T13:17:41.266Z,82.56
2019-01-03T13:18:43.700Z,81.81
2019-01-03T13:20:04.225Z,80.80
2019-01-03T13:20:47.768Z,80.19
2019-01-03T13:21:44.777Z,80.00
2019-01-03T13:24:27.255Z,80.04
2019-01-03T13:25:13.256Z,79.19
2019-01-03T13:26:27.758Z,80.14
2019-01-03T13:27:17.256Z,80.62
2019-01-03T13:28:13.759Z,80.76
2019-01-03T13:29:13.763Z,81.62
2019-01-03T13:32:06.505Z,82.56
2019-01-03T13:34:20.304Z,82.94
2019-01-03T13:37:12.779Z,82.75
2019-01-03T13:37:55.262Z,83.23
2019-01-03T13:38:51.801Z,83.18
2019-01-03T13:40:13.264Z,83.42
2019-01-03T13:42:44.626Z,84.08
2019-01-03T13:43:28.557Z,83.80
2019-01-03T13:44:23.619Z,83.89
2019-01-03T13:45:24.134Z,83.32
2019-01-03T13:46:38.121Z,83.61
2019-01-03T13:47:25.587Z,83.89
2019-01-03T13:48:24.120Z,84.74
2019-01-03T13:49:25.977Z,84.36
2019-01-03T13:50:26.056Z,83.51
2019-01-03T13:51:23.967Z,82.75
2019-01-03T13:52:24.636Z,83.89
2019-01-03T13:53:46.120Z,84.27
2019-01-03T13:54:28.148Z,84.27
2019-01-03T13:55:25.125Z,84.46
2019-01-03T13:56:25.120Z,84.36
2019-01-03T13:57:25.624Z,83.42
2019-01-03T13:58:46.632Z,83.23
2019-01-03T13:59:25.626Z,83.61
2019-01-03T14:00:35.121Z,84.17
2019-01-03T14:02:57.343Z,83.42
2019-01-03T14:03:57.350Z,83.42
2019-01-03T14:04:57.367Z,84.27
2019-01-03T14:06:01.349Z,84.36
2019-01-03T14:06:57.854Z,85.03
2019-01-03T14:07:57.849Z,85.22
2019-01-03T14:08:57.848Z,85.31
2019-01-03T14:09:58.351Z,85.50
2019-01-03T14:11:28.870Z,85.03
2019-01-03T14:11:58.349Z,85.50
2019-01-03T14:12:58.349Z,85.22
2019-01-03T14:13:58.851Z,85.13
2019-01-03T14:16:48.198Z,85.41
2019-01-03T14:17:30.227Z,86.07
2019-01-03T14:18:30.205Z,86.07
2019-01-03T14:19:30.707Z,85.69
2019-01-03T14:22:26.551Z,86.74
2019-01-03T14:23:23.057Z,86.16
2019-01-03T14:25:55.176Z,86.31
2019-01-03T14:26:35.099Z,87.30
2019-01-03T14:27:37.158Z,86.74
2019-01-03T14:28:34.160Z,87.12
2019-01-03T14:31:05.881Z,87.12
2019-01-03T14:32:05.890Z,87.02
2019-01-03T14:35:01.609Z,87.02
2019-01-03T14:40:19.069Z,86.98
2019-01-03T14:41:40.049Z,86.79
2019-01-03T14:42:19.058Z,87.64
2019-01-03T14:43:19.557Z,87.92
2019-01-03T14:47:47.175Z,87.45
2019-01-03T14:48:26.167Z,87.54
2019-01-03T14:52:31.669Z,87.26
2019-01-03T14:53:32.363Z,87.45
2019-01-03T14:54:35.057Z,87.45
2019-01-03T14:55:53.363Z,87.35
2019-01-03T14:59:38.997Z,88.21
2019-01-03T15:00:35.521Z,87.54
2019-01-03T15:01:35.504Z,87.35
2019-01-03T15:04:07.002Z,88.02
2019-01-03T15:07:04.001Z,88.21
2019-01-03T15:07:44.989Z,88.02
2019-01-03T15:08:48.989Z,88.11
2019-01-03T15:11:18.711Z,88.30
2019-01-03T15:12:14.716Z,88.68
2019-01-03T15:13:35.733Z,88.96
2019-01-03T15:14:17.216Z,88.49
2019-01-03T15:16:50.066Z,87.92
2019-01-03T15:17:47.068Z,89.06
2019-01-03T15:18:49.527Z,89.06
2019-01-03T15:20:08.594Z,88.87
2019-01-03T15:20:53.571Z,88.49
2019-01-03T15:23:22.799Z,88.87
2019-01-03T15:24:43.805Z,89.06
2019-01-03T15:25:22.804Z,88.49
2019-01-03T15:27:58.539Z,88.78
2019-01-03T15:30:26.371Z,88.78
2019-01-03T15:31:26.374Z,89.25
2019-01-03T15:32:26.379Z,89.15
2019-01-03T15:33:29.873Z,89.53
2019-01-03T15:36:01.667Z,89.15
2019-01-03T15:37:00.159Z,89.15
2019-01-03T15:37:58.226Z,89.34
2019-01-03T15:42:05.485Z,89.77
2019-01-03T15:43:05.478Z,89.53
2019-01-03T15:44:29.970Z,89.58
2019-01-03T15:45:28.436Z,89.39
2019-01-03T15:46:05.974Z,89.77
2019-01-03T15:47:06.948Z,89.96
2019-01-03T15:48:26.986Z,89.96
2019-01-03T15:49:09.974Z,90.06
2019-01-03T15:50:27.473Z,89.68
2019-01-03T15:51:06.481Z,89.77
2019-01-03T15:52:27.479Z,89.96
2019-01-03T15:53:06.474Z,90.15
2019-01-03T15:54:06.977Z,89.77
2019-01-03T15:55:09.987Z,89.39
2019-01-03T15:56:06.973Z,90.15
2019-01-03T15:57:06.973Z,89.77
2019-01-03T15:58:07.475Z,89.77
2019-01-03T15:59:06.687Z,89.58
2019-01-03T16:00:12.946Z,89.68
2019-01-03T16:01:07.478Z,89.58
2019-01-03T16:02:07.999Z,89.96
2019-01-03T16:04:39.316Z,89.87
2019-01-03T16:07:15.709Z,89.68
2019-01-03T16:08:14.265Z,89.87
2019-01-03T16:09:14.248Z,89.96
2019-01-03T16:10:16.741Z,89.77
2019-01-03T16:11:18.740Z,89.87
2019-01-03T16:12:14.735Z,89.49
2019-01-03T16:13:16.176Z,89.49
2019-01-03T16:15:46.482Z,89.77
2019-01-03T16:16:49.963Z,89.58
2019-01-03T16:17:46.467Z,89.77
2019-01-03T16:20:18.183Z,89.77
2019-01-03T16:21:18.191Z,89.39
2019-01-03T16:23:53.073Z,89.49
2019-01-03T16:24:53.066Z,89.68
2019-01-03T16:25:53.073Z,90.06
2019-01-03T16:28:51.261Z,90.15
2019-01-03T16:29:47.764Z,90.34
2019-01-03T16:30:45.807Z,90.15
2019-01-03T16:33:17.521Z,89.96
2019-01-03T16:34:00.535Z,89.34
2019-01-03T16:35:17.528Z,89.49
2019-01-03T16:36:18.028Z,89.77
2019-01-03T16:37:18.048Z,89.20
2019-01-03T16:38:18.029Z,88.82
2019-01-03T16:40:33.624Z,89.82
2019-01-03T16:41:53.192Z,89.96
2019-01-03T16:42:32.190Z,89.77
2019-01-03T16:45:07.431Z,90.06
2019-01-03T16:46:03.910Z,90.25
2019-01-03T16:47:17.849Z,90.81
2019-01-03T16:48:25.421Z,90.25
2019-01-03T16:49:04.413Z,89.77
2019-01-03T16:50:04.421Z,89.96
2019-01-03T16:51:09.349Z,89.96
2019-01-03T16:52:04.913Z,90.25
2019-01-03T16:54:35.530Z,89.44
2019-01-03T16:58:43.491Z,90.15
2019-01-03T16:59:43.485Z,90.44
2019-01-03T17:00:43.477Z,90.72
2019-01-03T17:03:18.695Z,91.38
2019-01-03T17:04:15.199Z,91.38
2019-01-03T17:05:15.224Z,90.81
2019-01-03T17:07:46.926Z,90.25
2019-01-03T17:08:53.361Z,90.15